sensor_id;sensor_type;location;lat;lon;timestamp;P1;durP1;ratioP1;P2;durP2;ratioP2
68921;SDS011;55959;51.244;5.724;2023-04-02T00:00:36;3.00;;;2.80;;
68921;SDS011;55959;51.244;5.724;2023-04-02T00:03:24;2.90;;;2.70;;
68921;SDS011;55959;51.244;5.724;2023-04-02T00:08:54;2.83;;;2.63;;
68921;SDS011;55959;51.244;5.724;2023-04-02T00:11:33;3.00;;;2.80;;
68921;SDS011;55959;51.244;5.724;2023-04-02T00:14:03;2.57;;;2.47;;
68921;SDS011;55959;51.244;5.724;2023-04-02T00:16:39;2.77;;;2.57;;
68921;SDS011;55959;51.244;5.724;2023-04-02T00:19:23;3.10;;;2.90;;
68921;SDS011;55959;51.244;5.724;2023-04-02T00:22:03;2.93;;;2.73;;
68921;SDS011;55959;51.244;5.724;2023-04-02T00:24:33;2.60;;;2.40;;
68921;SDS011;55959;51.244;5.724;2023-04-02T00:26:59;2.70;;;2.50;;
68921;SDS011;55959;51.244;5.724;2023-04-02T00:29:25;2.80;;;2.60;;
68921;SDS011;55959;51.244;5.724;2023-04-02T00:31:51;2.20;;;2.10;;
68921;SDS011;55959;51.244;5.724;2023-04-02T00:34:20;3.13;;;2.83;;
68921;SDS011;55959;51.244;5.724;2023-04-02T00:36:56;2.60;;;2.40;;
68921;SDS011;55959;51.244;5.724;2023-04-02T00:39:24;3.00;;;2.80;;
68921;SDS011;55959;51.244;5.724;2023-04-02T00:41:54;2.60;;;2.40;;
68921;SDS011;55959;51.244;5.724;2023-04-02T00:44:31;2.80;;;2.60;;
68921;SDS011;55959;51.244;5.724;2023-04-02T00:47:13;2.80;;;2.60;;
68921;SDS011;55959;51.244;5.724;2023-04-02T00:49:56;2.83;;;2.63;;
68921;SDS011;55959;51.244;5.724;2023-04-02T00:52:49;3.00;;;2.70;;
68921;SDS011;55959;51.244;5.724;2023-04-02T00:55:24;3.13;;;2.93;;
68921;SDS011;55959;51.244;5.724;2023-04-02T00:58:00;3.40;;;3.10;;
68921;SDS011;55959;51.244;5.724;2023-04-02T01:05:47;2.93;;;2.73;;
68921;SDS011;55959;51.244;5.724;2023-04-02T01:22:25;3.30;;;3.10;;
68921;SDS011;55959;51.244;5.724;2023-04-02T01:25:06;2.57;;;2.47;;
68921;SDS011;55959;51.244;5.724;2023-04-02T01:27:48;3.20;;;2.90;;
68921;SDS011;55959;51.244;5.724;2023-04-02T01:30:25;2.83;;;2.63;;
68921;SDS011;55959;51.244;5.724;2023-04-02T01:32:51;2.90;;;2.60;;
68921;SDS011;55959;51.244;5.724;2023-04-02T01:35:18;2.70;;;2.50;;
68921;SDS011;55959;51.244;5.724;2023-04-02T01:40:56;2.90;;;2.70;;
68921;SDS011;55959;51.244;5.724;2023-04-02T01:48:49;2.40;;;2.20;;
68921;SDS011;55959;51.244;5.724;2023-04-02T01:51:29;3.30;;;2.63;;
68921;SDS011;55959;51.244;5.724;2023-04-02T01:53:58;3.50;;;2.77;;
68921;SDS011;55959;51.244;5.724;2023-04-02T01:56:27;2.60;;;2.40;;
68921;SDS011;55959;51.244;5.724;2023-04-02T01:58:55;2.47;;;2.20;;
68921;SDS011;55959;51.244;5.724;2023-04-02T02:01:23;2.80;;;2.47;;
68921;SDS011;55959;51.244;5.724;2023-04-02T02:04:01;3.60;;;2.90;;
68921;SDS011;55959;51.244;5.724;2023-04-02T02:06:27;3.00;;;2.80;;
68921;SDS011;55959;51.244;5.724;2023-04-02T02:09:13;2.97;;;2.67;;
68921;SDS011;55959;51.244;5.724;2023-04-02T02:11:47;2.13;;;2.00;;
68921;SDS011;55959;51.244;5.724;2023-04-02T02:14:17;2.50;;;2.30;;
68921;SDS011;55959;51.244;5.724;2023-04-02T02:16:47;2.30;;;2.10;;
68921;SDS011;55959;51.244;5.724;2023-04-02T02:19:25;2.97;;;2.57;;
68921;SDS011;55959;51.244;5.724;2023-04-02T02:21:53;2.60;;;2.40;;
68921;SDS011;55959;51.244;5.724;2023-04-02T02:25:06;2.30;;;2.10;;
68921;SDS011;55959;51.244;5.724;2023-04-02T02:36:00;2.90;;;2.40;;
68921;SDS011;55959;51.244;5.724;2023-04-02T02:38:46;2.80;;;2.57;;
68921;SDS011;55959;51.244;5.724;2023-04-02T02:41:38;2.43;;;2.23;;
68921;SDS011;55959;51.244;5.724;2023-04-02T02:44:16;2.77;;;2.57;;
68921;SDS011;55959;51.244;5.724;2023-04-02T02:49:32;2.40;;;2.20;;
68921;SDS011;55959;51.244;5.724;2023-04-02T02:55:14;2.20;;;2.10;;
68921;SDS011;55959;51.244;5.724;2023-04-02T02:57:43;2.10;;;2.00;;
68921;SDS011;55959;51.244;5.724;2023-04-02T03:00:16;1.70;;;1.60;;
68921;SDS011;55959;51.244;5.724;2023-04-02T03:02:43;2.40;;;2.20;;
68921;SDS011;55959;51.244;5.724;2023-04-02T03:05:20;2.80;;;2.30;;
68921;SDS011;55959;51.244;5.724;2023-04-02T03:07:49;2.23;;;2.10;;
68921;SDS011;55959;51.244;5.724;2023-04-02T03:12:48;2.50;;;2.30;;
68921;SDS011;55959;51.244;5.724;2023-04-02T03:19:04;3.10;;;2.80;;
68921;SDS011;55959;51.244;5.724;2023-04-02T03:21:51;3.27;;;2.80;;
68921;SDS011;55959;51.244;5.724;2023-04-02T03:24:32;2.40;;;2.20;;
68921;SDS011;55959;51.244;5.724;2023-04-02T03:27:33;3.53;;;2.57;;
68921;SDS011;55959;51.244;5.724;2023-04-02T03:30:10;3.10;;;2.77;;
68921;SDS011;55959;51.244;5.724;2023-04-02T03:33:12;3.63;;;3.33;;
68921;SDS011;55959;51.244;5.724;2023-04-02T03:35:48;3.13;;;2.87;;
68921;SDS011;55959;51.244;5.724;2023-04-02T03:38:21;2.70;;;2.50;;
68921;SDS011;55959;51.244;5.724;2023-04-02T03:40:58;3.33;;;2.53;;
68921;SDS011;55959;51.244;5.724;2023-04-02T03:43:27;3.30;;;3.00;;
68921;SDS011;55959;51.244;5.724;2023-04-02T03:46:06;2.60;;;2.40;;
68921;SDS011;55959;51.244;5.724;2023-04-02T03:48:57;3.30;;;3.07;;
68921;SDS011;55959;51.244;5.724;2023-04-02T03:52:01;3.57;;;3.30;;
68921;SDS011;55959;51.244;5.724;2023-04-02T03:54:28;3.20;;;2.90;;
68921;SDS011;55959;51.244;5.724;2023-04-02T03:56:56;3.30;;;3.00;;
68921;SDS011;55959;51.244;5.724;2023-04-02T04:04:50;3.50;;;3.20;;
68921;SDS011;55959;51.244;5.724;2023-04-02T04:07:28;3.37;;;3.07;;
68921;SDS011;55959;51.244;5.724;2023-04-02T04:09:57;3.87;;;3.57;;
68921;SDS011;55959;51.244;5.724;2023-04-02T04:12:46;3.37;;;3.07;;
68921;SDS011;55959;51.244;5.724;2023-04-02T04:15:20;3.60;;;3.30;;
68921;SDS011;55959;51.244;5.724;2023-04-02T04:21:00;3.87;;;3.57;;
68921;SDS011;55959;51.244;5.724;2023-04-02T04:26:00;4.33;;;3.80;;
68921;SDS011;55959;51.244;5.724;2023-04-02T04:31:46;4.57;;;4.17;;
68921;SDS011;55959;51.244;5.724;2023-04-02T04:36:53;5.73;;;5.17;;
68921;SDS011;55959;51.244;5.724;2023-04-02T04:42:16;4.50;;;4.10;;
68921;SDS011;55959;51.244;5.724;2023-04-02T04:44:59;5.13;;;4.50;;
68921;SDS011;55959;51.244;5.724;2023-04-02T04:47:39;5.50;;;4.70;;
68921;SDS011;55959;51.244;5.724;2023-04-02T04:50:28;5.20;;;4.70;;
68921;SDS011;55959;51.244;5.724;2023-04-02T04:53:05;6.80;;;4.70;;
68921;SDS011;55959;51.244;5.724;2023-04-02T04:55:46;5.77;;;5.20;;
68921;SDS011;55959;51.244;5.724;2023-04-02T05:09:10;5.70;;;5.20;;
68921;SDS011;55959;51.244;5.724;2023-04-02T05:12:11;5.57;;;4.97;;
68921;SDS011;55959;51.244;5.724;2023-04-02T05:15:00;5.77;;;5.27;;
68921;SDS011;55959;51.244;5.724;2023-04-02T05:20:24;5.10;;;4.60;;
68921;SDS011;55959;51.244;5.724;2023-04-02T05:23:28;4.93;;;4.47;;
68921;SDS011;55959;51.244;5.724;2023-04-02T05:31:16;4.83;;;4.43;;
68921;SDS011;55959;51.244;5.724;2023-04-02T05:33:54;5.93;;;4.73;;
68921;SDS011;55959;51.244;5.724;2023-04-02T05:36:25;5.20;;;4.70;;
68921;SDS011;55959;51.244;5.724;2023-04-02T05:38:53;4.50;;;3.93;;
68921;SDS011;55959;51.244;5.724;2023-04-02T05:41:32;5.53;;;4.80;;
68921;SDS011;55959;51.244;5.724;2023-04-02T05:47:01;5.97;;;5.00;;
68921;SDS011;55959;51.244;5.724;2023-04-02T05:49:41;6.93;;;5.00;;
68921;SDS011;55959;51.244;5.724;2023-04-02T05:52:16;5.87;;;5.00;;
68921;SDS011;55959;51.244;5.724;2023-04-02T05:54:48;5.87;;;4.40;;
68921;SDS011;55959;51.244;5.724;2023-04-02T05:57:19;7.23;;;5.30;;
68921;SDS011;55959;51.244;5.724;2023-04-02T05:59:51;6.40;;;5.10;;
68921;SDS011;55959;51.244;5.724;2023-04-02T06:02:28;6.63;;;5.50;;
68921;SDS011;55959;51.244;5.724;2023-04-02T06:07:40;5.00;;;4.50;;
68921;SDS011;55959;51.244;5.724;2023-04-02T06:10:13;5.00;;;4.50;;
68921;SDS011;55959;51.244;5.724;2023-04-02T06:12:59;6.13;;;4.77;;
68921;SDS011;55959;51.244;5.724;2023-04-02T06:15:33;5.33;;;4.50;;
68921;SDS011;55959;51.244;5.724;2023-04-02T06:20:44;4.73;;;3.90;;
68921;SDS011;55959;51.244;5.724;2023-04-02T06:23:13;6.57;;;4.50;;
68921;SDS011;55959;51.244;5.724;2023-04-02T06:25:50;4.67;;;4.07;;
68921;SDS011;55959;51.244;5.724;2023-04-02T06:28:27;4.80;;;3.97;;
68921;SDS011;55959;51.244;5.724;2023-04-02T06:31:06;4.70;;;3.73;;
68921;SDS011;55959;51.244;5.724;2023-04-02T06:34:03;5.33;;;4.53;;
68921;SDS011;55959;51.244;5.724;2023-04-02T06:36:31;4.80;;;4.33;;
68921;SDS011;55959;51.244;5.724;2023-04-02T06:39:02;6.13;;;5.00;;
68921;SDS011;55959;51.244;5.724;2023-04-02T06:41:32;5.97;;;4.60;;
68921;SDS011;55959;51.244;5.724;2023-04-02T06:44:05;6.20;;;4.63;;
68921;SDS011;55959;51.244;5.724;2023-04-02T06:46:46;6.03;;;4.63;;
68921;SDS011;55959;51.244;5.724;2023-04-02T06:49:18;5.83;;;3.90;;
68921;SDS011;55959;51.244;5.724;2023-04-02T06:52:04;5.30;;;4.40;;
68921;SDS011;55959;51.244;5.724;2023-04-02T06:54:57;4.83;;;4.00;;
68921;SDS011;55959;51.244;5.724;2023-04-02T06:57:23;5.10;;;3.77;;
68921;SDS011;55959;51.244;5.724;2023-04-02T06:59:49;5.77;;;4.37;;
68921;SDS011;55959;51.244;5.724;2023-04-02T07:04:57;6.97;;;4.30;;
68921;SDS011;55959;51.244;5.724;2023-04-02T07:07:28;4.40;;;3.50;;
68921;SDS011;55959;51.244;5.724;2023-04-02T07:09:53;5.83;;;4.63;;
68921;SDS011;55959;51.244;5.724;2023-04-02T07:12:23;4.93;;;4.10;;
68921;SDS011;55959;51.244;5.724;2023-04-02T07:14:50;5.73;;;4.47;;
68921;SDS011;55959;51.244;5.724;2023-04-02T07:17:17;6.87;;;4.30;;
68921;SDS011;55959;51.244;5.724;2023-04-02T07:19:44;4.53;;;4.07;;
68921;SDS011;55959;51.244;5.724;2023-04-02T07:22:13;5.07;;;3.90;;
68921;SDS011;55959;51.244;5.724;2023-04-02T07:24:41;4.47;;;3.90;;
68921;SDS011;55959;51.244;5.724;2023-04-02T07:27:08;5.43;;;4.47;;
68921;SDS011;55959;51.244;5.724;2023-04-02T07:29:35;5.00;;;4.20;;
68921;SDS011;55959;51.244;5.724;2023-04-02T07:32:06;4.73;;;3.87;;
68921;SDS011;55959;51.244;5.724;2023-04-02T07:34:40;3.70;;;3.27;;
68921;SDS011;55959;51.244;5.724;2023-04-02T07:37:06;5.77;;;3.73;;
68921;SDS011;55959;51.244;5.724;2023-04-02T07:39:36;4.37;;;3.50;;
68921;SDS011;55959;51.244;5.724;2023-04-02T07:42:01;4.07;;;3.60;;
68921;SDS011;55959;51.244;5.724;2023-04-02T07:44:28;5.23;;;3.80;;
68921;SDS011;55959;51.244;5.724;2023-04-02T07:46:54;4.50;;;3.87;;
68921;SDS011;55959;51.244;5.724;2023-04-02T07:49:20;4.83;;;3.57;;
68921;SDS011;55959;51.244;5.724;2023-04-02T07:51:46;4.93;;;3.57;;
68921;SDS011;55959;51.244;5.724;2023-04-02T07:54:12;4.83;;;3.17;;
68921;SDS011;55959;51.244;5.724;2023-04-02T07:56:38;6.47;;;3.93;;
68921;SDS011;55959;51.244;5.724;2023-04-02T07:59:04;4.83;;;3.37;;
68921;SDS011;55959;51.244;5.724;2023-04-02T08:01:30;4.97;;;3.50;;
68921;SDS011;55959;51.244;5.724;2023-04-02T08:03:59;5.60;;;4.30;;
68921;SDS011;55959;51.244;5.724;2023-04-02T08:06:27;5.00;;;3.90;;
68921;SDS011;55959;51.244;5.724;2023-04-02T08:08:53;4.40;;;3.70;;
68921;SDS011;55959;51.244;5.724;2023-04-02T08:11:21;5.87;;;4.33;;
68921;SDS011;55959;51.244;5.724;2023-04-02T08:13:46;6.97;;;4.37;;
68921;SDS011;55959;51.244;5.724;2023-04-02T08:16:12;5.43;;;3.70;;
68921;SDS011;55959;51.244;5.724;2023-04-02T08:18:38;4.83;;;3.40;;
68921;SDS011;55959;51.244;5.724;2023-04-02T08:21:06;3.73;;;3.40;;
68921;SDS011;55959;51.244;5.724;2023-04-02T08:23:34;4.97;;;3.80;;
68921;SDS011;55959;51.244;5.724;2023-04-02T08:26:01;7.03;;;3.53;;
68921;SDS011;55959;51.244;5.724;2023-04-02T08:28:28;4.90;;;3.97;;
68921;SDS011;55959;51.244;5.724;2023-04-02T08:30:54;5.17;;;3.70;;
68921;SDS011;55959;51.244;5.724;2023-04-02T08:33:20;4.63;;;3.50;;
68921;SDS011;55959;51.244;5.724;2023-04-02T08:35:46;6.30;;;4.17;;
68921;SDS011;55959;51.244;5.724;2023-04-02T08:38:13;5.80;;;3.90;;
68921;SDS011;55959;51.244;5.724;2023-04-02T08:40:44;5.83;;;3.90;;
68921;SDS011;55959;51.244;5.724;2023-04-02T08:46:49;6.73;;;3.63;;
68921;SDS011;55959;51.244;5.724;2023-04-02T08:49:26;6.97;;;4.00;;
68921;SDS011;55959;51.244;5.724;2023-04-02T08:51:56;4.83;;;3.57;;
68921;SDS011;55959;51.244;5.724;2023-04-02T08:54:27;5.17;;;3.03;;
68921;SDS011;55959;51.244;5.724;2023-04-02T09:02:41;5.83;;;3.33;;
68921;SDS011;55959;51.244;5.724;2023-04-02T09:05:26;6.67;;;3.90;;
68921;SDS011;55959;51.244;5.724;2023-04-02T09:07:57;5.97;;;2.90;;
68921;SDS011;55959;51.244;5.724;2023-04-02T09:10:36;5.73;;;3.00;;
68921;SDS011;55959;51.244;5.724;2023-04-02T09:13:13;5.57;;;3.10;;
68921;SDS011;55959;51.244;5.724;2023-04-02T09:15:47;3.70;;;2.43;;
68921;SDS011;55959;51.244;5.724;2023-04-02T09:18:16;6.20;;;2.97;;
68921;SDS011;55959;51.244;5.724;2023-04-02T09:20:43;6.73;;;3.10;;
68921;SDS011;55959;51.244;5.724;2023-04-02T09:23:22;5.57;;;2.77;;
68921;SDS011;55959;51.244;5.724;2023-04-02T09:25:51;3.27;;;2.27;;
68921;SDS011;55959;51.244;5.724;2023-04-02T09:28:18;4.03;;;2.20;;
68921;SDS011;55959;51.244;5.724;2023-04-02T09:33:41;4.27;;;2.60;;
68921;SDS011;55959;51.244;5.724;2023-04-02T09:39:08;4.93;;;2.37;;
68921;SDS011;55959;51.244;5.724;2023-04-02T09:41:45;2.53;;;2.10;;
68921;SDS011;55959;51.244;5.724;2023-04-02T09:46:45;4.83;;;2.90;;
68921;SDS011;55959;51.244;5.724;2023-04-02T09:49:24;4.33;;;2.17;;
68921;SDS011;55959;51.244;5.724;2023-04-02T09:54:45;5.23;;;2.27;;
68921;SDS011;55959;51.244;5.724;2023-04-02T09:57:35;3.07;;;1.67;;
68921;SDS011;55959;51.244;5.724;2023-04-02T10:00:19;3.07;;;1.97;;
68921;SDS011;55959;51.244;5.724;2023-04-02T10:08:34;7.43;;;2.43;;
68921;SDS011;55959;51.244;5.724;2023-04-02T10:11:03;4.80;;;2.10;;
68921;SDS011;55959;51.244;5.724;2023-04-02T10:13:51;3.60;;;2.03;;
68921;SDS011;55959;51.244;5.724;2023-04-02T10:16:31;3.67;;;2.30;;
68921;SDS011;55959;51.244;5.724;2023-04-02T10:19:21;3.27;;;2.03;;
68921;SDS011;55959;51.244;5.724;2023-04-02T10:22:16;4.00;;;2.70;;
68921;SDS011;55959;51.244;5.724;2023-04-02T10:24:45;3.23;;;2.00;;
68921;SDS011;55959;51.244;5.724;2023-04-02T10:33:12;3.93;;;2.00;;
68921;SDS011;55959;51.244;5.724;2023-04-02T10:39:00;4.40;;;2.10;;
68921;SDS011;55959;51.244;5.724;2023-04-02T10:52:38;3.17;;;2.13;;
68921;SDS011;55959;51.244;5.724;2023-04-02T10:55:39;2.17;;;1.73;;
68921;SDS011;55959;51.244;5.724;2023-04-02T10:58:23;3.50;;;2.20;;
68921;SDS011;55959;51.244;5.724;2023-04-02T11:00:53;4.60;;;2.20;;
68921;SDS011;55959;51.244;5.724;2023-04-02T11:03:29;5.73;;;2.00;;
68921;SDS011;55959;51.244;5.724;2023-04-02T11:06:04;3.47;;;1.70;;
68921;SDS011;55959;51.244;5.724;2023-04-02T11:08:46;3.30;;;2.17;;
68921;SDS011;55959;51.244;5.724;2023-04-02T11:11:25;2.27;;;1.60;;
68921;SDS011;55959;51.244;5.724;2023-04-02T11:16:54;3.20;;;1.90;;
68921;SDS011;55959;51.244;5.724;2023-04-02T11:19:27;3.30;;;2.13;;
68921;SDS011;55959;51.244;5.724;2023-04-02T11:22:02;4.70;;;2.17;;
68921;SDS011;55959;51.244;5.724;2023-04-02T11:24:49;3.67;;;1.93;;
68921;SDS011;55959;51.244;5.724;2023-04-02T11:32:49;3.20;;;2.03;;
68921;SDS011;55959;51.244;5.724;2023-04-02T11:38:01;4.03;;;1.80;;
68921;SDS011;55959;51.244;5.724;2023-04-02T11:40:40;2.93;;;1.67;;
68921;SDS011;55959;51.244;5.724;2023-04-02T11:48:40;4.17;;;1.80;;
68921;SDS011;55959;51.244;5.724;2023-04-02T11:53:45;2.70;;;1.77;;
68921;SDS011;55959;51.244;5.724;2023-04-02T11:59:16;3.33;;;1.60;;
68921;SDS011;55959;51.244;5.724;2023-04-02T12:02:12;2.40;;;1.60;;
68921;SDS011;55959;51.244;5.724;2023-04-02T12:08:21;4.57;;;1.87;;
68921;SDS011;55959;51.244;5.724;2023-04-02T12:10:55;4.67;;;1.70;;
68921;SDS011;55959;51.244;5.724;2023-04-02T12:16:05;3.30;;;1.90;;
68921;SDS011;55959;51.244;5.724;2023-04-02T12:18:33;2.27;;;1.43;;
68921;SDS011;55959;51.244;5.724;2023-04-02T12:21:00;2.50;;;1.53;;
68921;SDS011;55959;51.244;5.724;2023-04-02T12:23:30;3.20;;;1.83;;
68921;SDS011;55959;51.244;5.724;2023-04-02T12:26:03;7.23;;;2.37;;
68921;SDS011;55959;51.244;5.724;2023-04-02T12:28:32;3.57;;;1.87;;
68921;SDS011;55959;51.244;5.724;2023-04-02T12:33:34;2.47;;;1.60;;
68921;SDS011;55959;51.244;5.724;2023-04-02T12:36:04;2.67;;;1.80;;
68921;SDS011;55959;51.244;5.724;2023-04-02T12:41:22;1.70;;;1.40;;
68921;SDS011;55959;51.244;5.724;2023-04-02T12:43:55;2.23;;;1.43;;
68921;SDS011;55959;51.244;5.724;2023-04-02T12:46:23;2.87;;;1.67;;
68921;SDS011;55959;51.244;5.724;2023-04-02T12:48:51;2.57;;;1.90;;
68921;SDS011;55959;51.244;5.724;2023-04-02T12:51:18;4.67;;;1.97;;
68921;SDS011;55959;51.244;5.724;2023-04-02T12:53:48;1.63;;;1.43;;
68921;SDS011;55959;51.244;5.724;2023-04-02T12:56:20;2.30;;;1.53;;
68921;SDS011;55959;51.244;5.724;2023-04-02T12:58:56;1.87;;;1.63;;
68921;SDS011;55959;51.244;5.724;2023-04-02T13:01:24;3.73;;;1.77;;
68921;SDS011;55959;51.244;5.724;2023-04-02T13:04:11;2.73;;;1.67;;
68921;SDS011;55959;51.244;5.724;2023-04-02T13:06:37;2.60;;;1.47;;
68921;SDS011;55959;51.244;5.724;2023-04-02T13:09:06;2.83;;;1.60;;
68921;SDS011;55959;51.244;5.724;2023-04-02T13:12:01;2.13;;;1.37;;
68921;SDS011;55959;51.244;5.724;2023-04-02T13:14:27;4.17;;;1.60;;
68921;SDS011;55959;51.244;5.724;2023-04-02T13:16:54;3.43;;;1.57;;
68921;SDS011;55959;51.244;5.724;2023-04-02T13:19:30;2.93;;;1.73;;
68921;SDS011;55959;51.244;5.724;2023-04-02T13:21:58;3.00;;;1.70;;
68921;SDS011;55959;51.244;5.724;2023-04-02T13:24:27;2.23;;;1.50;;
68921;SDS011;55959;51.244;5.724;2023-04-02T13:26:59;2.40;;;1.90;;
68921;SDS011;55959;51.244;5.724;2023-04-02T13:29:30;3.73;;;1.80;;
68921;SDS011;55959;51.244;5.724;2023-04-02T13:31:59;2.50;;;1.33;;
68921;SDS011;55959;51.244;5.724;2023-04-02T13:34:31;2.43;;;1.70;;
68921;SDS011;55959;51.244;5.724;2023-04-02T13:36:57;2.87;;;1.70;;
68921;SDS011;55959;51.244;5.724;2023-04-02T13:39:25;2.07;;;1.50;;
68921;SDS011;55959;51.244;5.724;2023-04-02T13:41:54;2.33;;;1.80;;
68921;SDS011;55959;51.244;5.724;2023-04-02T13:44:30;1.97;;;1.40;;
68921;SDS011;55959;51.244;5.724;2023-04-02T13:46:58;3.10;;;1.40;;
68921;SDS011;55959;51.244;5.724;2023-04-02T13:49:25;2.00;;;1.63;;
68921;SDS011;55959;51.244;5.724;2023-04-02T13:51:53;1.70;;;1.37;;
68921;SDS011;55959;51.244;5.724;2023-04-02T13:56:58;3.40;;;1.50;;
68921;SDS011;55959;51.244;5.724;2023-04-02T13:59:24;2.00;;;1.50;;
68921;SDS011;55959;51.244;5.724;2023-04-02T14:01:52;2.00;;;1.40;;
68921;SDS011;55959;51.244;5.724;2023-04-02T14:04:26;3.27;;;1.83;;
68921;SDS011;55959;51.244;5.724;2023-04-02T14:15:32;1.87;;;1.20;;
68921;SDS011;55959;51.244;5.724;2023-04-02T14:20:58;3.00;;;1.57;;
68921;SDS011;55959;51.244;5.724;2023-04-02T14:24:03;1.93;;;1.43;;
68921;SDS011;55959;51.244;5.724;2023-04-02T14:29:13;2.80;;;1.30;;
68921;SDS011;55959;51.244;5.724;2023-04-02T14:32:05;2.10;;;1.40;;
68921;SDS011;55959;51.244;5.724;2023-04-02T14:37:54;1.90;;;1.43;;
68921;SDS011;55959;51.244;5.724;2023-04-02T14:41:27;1.73;;;1.33;;
68921;SDS011;55959;51.244;5.724;2023-04-02T14:44:02;2.77;;;1.50;;
68921;SDS011;55959;51.244;5.724;2023-04-02T14:46:31;2.57;;;1.30;;
68921;SDS011;55959;51.244;5.724;2023-04-02T14:57:31;3.33;;;1.47;;
68921;SDS011;55959;51.244;5.724;2023-04-02T15:00:09;1.60;;;1.50;;
68921;SDS011;55959;51.244;5.724;2023-04-02T15:05:20;3.73;;;1.70;;
68921;SDS011;55959;51.244;5.724;2023-04-02T15:13:43;2.23;;;1.43;;
68921;SDS011;55959;51.244;5.724;2023-04-02T15:16:17;5.20;;;2.97;;
68921;SDS011;55959;51.244;5.724;2023-04-02T15:18:50;3.20;;;1.73;;
68921;SDS011;55959;51.244;5.724;2023-04-02T15:33:21;1.40;;;1.30;;
68921;SDS011;55959;51.244;5.724;2023-04-02T15:36:13;2.17;;;1.70;;
68921;SDS011;55959;51.244;5.724;2023-04-02T15:38:43;2.50;;;1.33;;
68921;SDS011;55959;51.244;5.724;2023-04-02T15:41:21;3.23;;;1.80;;
68921;SDS011;55959;51.244;5.724;2023-04-02T15:43:58;3.87;;;1.83;;
68921;SDS011;55959;51.244;5.724;2023-04-02T15:49:41;2.43;;;1.90;;
68921;SDS011;55959;51.244;5.724;2023-04-02T15:52:41;3.40;;;2.03;;
68921;SDS011;55959;51.244;5.724;2023-04-02T16:01:26;1.97;;;1.40;;
68921;SDS011;55959;51.244;5.724;2023-04-02T16:06:59;2.03;;;1.70;;
68921;SDS011;55959;51.244;5.724;2023-04-02T16:12:26;2.97;;;1.57;;
68921;SDS011;55959;51.244;5.724;2023-04-02T16:14:58;2.10;;;1.40;;
68921;SDS011;55959;51.244;5.724;2023-04-02T16:17:48;1.93;;;1.30;;
68921;SDS011;55959;51.244;5.724;2023-04-02T16:25:51;2.07;;;1.50;;
68921;SDS011;55959;51.244;5.724;2023-04-02T16:28:27;3.03;;;1.57;;
68921;SDS011;55959;51.244;5.724;2023-04-02T16:31:02;3.07;;;1.87;;
68921;SDS011;55959;51.244;5.724;2023-04-02T16:33:41;2.40;;;1.40;;
68921;SDS011;55959;51.244;5.724;2023-04-02T16:36:34;2.37;;;1.63;;
68921;SDS011;55959;51.244;5.724;2023-04-02T16:48:24;3.07;;;2.17;;
68921;SDS011;55959;51.244;5.724;2023-04-02T16:53:49;2.20;;;1.50;;
68921;SDS011;55959;51.244;5.724;2023-04-02T17:01:57;2.40;;;1.40;;
68921;SDS011;55959;51.244;5.724;2023-04-02T17:05:05;2.53;;;1.63;;
68921;SDS011;55959;51.244;5.724;2023-04-02T17:07:56;2.87;;;1.80;;
68921;SDS011;55959;51.244;5.724;2023-04-02T17:13:26;2.30;;;1.50;;
68921;SDS011;55959;51.244;5.724;2023-04-02T17:16:04;3.37;;;1.97;;
68921;SDS011;55959;51.244;5.724;2023-04-02T17:18:56;3.83;;;2.00;;
68921;SDS011;55959;51.244;5.724;2023-04-02T17:21:24;2.53;;;1.60;;
68921;SDS011;55959;51.244;5.724;2023-04-02T17:23:53;2.23;;;1.67;;
68921;SDS011;55959;51.244;5.724;2023-04-02T17:26:41;3.33;;;1.83;;
68921;SDS011;55959;51.244;5.724;2023-04-02T17:29:20;2.43;;;1.60;;
68921;SDS011;55959;51.244;5.724;2023-04-02T17:31:56;2.27;;;1.63;;
68921;SDS011;55959;51.244;5.724;2023-04-02T17:34:24;1.47;;;1.27;;
68921;SDS011;55959;51.244;5.724;2023-04-02T17:42:30;2.83;;;1.70;;
68921;SDS011;55959;51.244;5.724;2023-04-02T17:45:16;2.13;;;1.70;;
68921;SDS011;55959;51.244;5.724;2023-04-02T17:53:21;2.17;;;1.53;;
68921;SDS011;55959;51.244;5.724;2023-04-02T17:56:21;3.90;;;1.70;;
68921;SDS011;55959;51.244;5.724;2023-04-02T18:08:21;2.10;;;1.90;;
68921;SDS011;55959;51.244;5.724;2023-04-02T18:13:50;2.47;;;1.80;;
68921;SDS011;55959;51.244;5.724;2023-04-02T18:19:29;3.67;;;2.50;;
68921;SDS011;55959;51.244;5.724;2023-04-02T18:25:42;3.30;;;1.70;;
68921;SDS011;55959;51.244;5.724;2023-04-02T18:28:36;2.23;;;1.57;;
68921;SDS011;55959;51.244;5.724;2023-04-02T18:43:03;5.27;;;2.33;;
68921;SDS011;55959;51.244;5.724;2023-04-02T18:51:24;1.83;;;1.60;;
68921;SDS011;55959;51.244;5.724;2023-04-02T18:56:49;3.07;;;1.70;;
68921;SDS011;55959;51.244;5.724;2023-04-02T18:59:21;1.93;;;1.70;;
68921;SDS011;55959;51.244;5.724;2023-04-02T19:05:21;2.40;;;1.60;;
68921;SDS011;55959;51.244;5.724;2023-04-02T19:08:09;3.00;;;1.73;;
68921;SDS011;55959;51.244;5.724;2023-04-02T19:11:06;2.63;;;1.63;;
68921;SDS011;55959;51.244;5.724;2023-04-02T19:13:52;2.37;;;1.57;;
68921;SDS011;55959;51.244;5.724;2023-04-02T19:21:34;2.50;;;1.60;;
68921;SDS011;55959;51.244;5.724;2023-04-02T19:24:21;2.27;;;1.70;;
68921;SDS011;55959;51.244;5.724;2023-04-02T19:35:56;3.07;;;1.57;;
68921;SDS011;55959;51.244;5.724;2023-04-02T19:44:18;2.13;;;1.57;;
68921;SDS011;55959;51.244;5.724;2023-04-02T19:46:45;2.13;;;1.50;;
68921;SDS011;55959;51.244;5.724;2023-04-02T19:49:11;3.87;;;2.80;;
68921;SDS011;55959;51.244;5.724;2023-04-02T19:51:42;4.67;;;3.00;;
68921;SDS011;55959;51.244;5.724;2023-04-02T19:54:08;2.43;;;2.17;;
68921;SDS011;55959;51.244;5.724;2023-04-02T19:56:34;2.63;;;2.10;;
68921;SDS011;55959;51.244;5.724;2023-04-02T19:59:00;3.13;;;1.77;;
68921;SDS011;55959;51.244;5.724;2023-04-02T20:01:25;2.33;;;1.83;;
68921;SDS011;55959;51.244;5.724;2023-04-02T20:03:51;3.30;;;2.03;;
68921;SDS011;55959;51.244;5.724;2023-04-02T20:06:17;2.23;;;1.93;;
68921;SDS011;55959;51.244;5.724;2023-04-02T20:08:44;4.30;;;2.20;;
68921;SDS011;55959;51.244;5.724;2023-04-02T20:11:10;4.43;;;2.10;;
68921;SDS011;55959;51.244;5.724;2023-04-02T20:13:36;3.60;;;2.30;;
68921;SDS011;55959;51.244;5.724;2023-04-02T20:16:02;3.37;;;2.20;;
68921;SDS011;55959;51.244;5.724;2023-04-02T20:18:30;2.30;;;1.87;;
68921;SDS011;55959;51.244;5.724;2023-04-02T20:20:56;2.27;;;1.97;;
68921;SDS011;55959;51.244;5.724;2023-04-02T20:23:22;3.10;;;2.30;;
68921;SDS011;55959;51.244;5.724;2023-04-02T20:25:49;4.47;;;2.00;;
68921;SDS011;55959;51.244;5.724;2023-04-02T20:28:22;2.30;;;2.10;;
68921;SDS011;55959;51.244;5.724;2023-04-02T20:30:50;3.23;;;2.10;;
68921;SDS011;55959;51.244;5.724;2023-04-02T20:33:16;3.20;;;2.13;;
68921;SDS011;55959;51.244;5.724;2023-04-02T20:35:48;2.43;;;1.80;;
68921;SDS011;55959;51.244;5.724;2023-04-02T20:38:16;3.13;;;1.90;;
68921;SDS011;55959;51.244;5.724;2023-04-02T20:40:43;2.13;;;1.87;;
68921;SDS011;55959;51.244;5.724;2023-04-02T20:43:16;2.93;;;2.20;;
68921;SDS011;55959;51.244;5.724;2023-04-02T20:45:41;2.43;;;2.23;;
68921;SDS011;55959;51.244;5.724;2023-04-02T20:48:18;3.00;;;2.43;;
68921;SDS011;55959;51.244;5.724;2023-04-02T20:50:44;3.40;;;2.10;;
68921;SDS011;55959;51.244;5.724;2023-04-02T20:53:12;3.47;;;2.20;;
68921;SDS011;55959;51.244;5.724;2023-04-02T20:55:37;2.47;;;2.10;;
68921;SDS011;55959;51.244;5.724;2023-04-02T20:58:03;2.40;;;1.83;;
68921;SDS011;55959;51.244;5.724;2023-04-02T21:00:29;3.73;;;1.87;;
68921;SDS011;55959;51.244;5.724;2023-04-02T21:02:54;3.37;;;2.10;;
68921;SDS011;55959;51.244;5.724;2023-04-02T21:05:21;3.67;;;2.20;;
68921;SDS011;55959;51.244;5.724;2023-04-02T21:07:47;3.20;;;2.00;;
68921;SDS011;55959;51.244;5.724;2023-04-02T21:10:13;3.17;;;2.07;;
68921;SDS011;55959;51.244;5.724;2023-04-02T21:12:38;3.23;;;2.03;;
68921;SDS011;55959;51.244;5.724;2023-04-02T21:15:04;3.70;;;2.30;;